Genova / Sestri Cristoforo Colombo Airport LIMJ

Flugplatz Daten

Name: Genova / Sestri Cristoforo Colombo Airport

Ident: LIMJ

Lat: 44,41329956

Long: 8,837499619

Platzhöhe: 13 ft

IataCode: GOA

City: Genova

Homepage: http://www.aeroportodigenova.com/en/home/index.php

Metar

2022/08/13 16:50
LIMJ 131650Z 18005KT CAVOK 26/19 Q1011

Taf

2022/08/13 12:00
TAF LIMJ 131100Z 1312/1412 01010KT CAVOK
BECMG 1312/1314 16010KT
BECMG 1317/1319 01008KT
BECMG 1408/1410 16012KT
Gewünschte Webcam nicht vorhanden? Dann fügen Sie eine hinzu. Sie wird dann so schnell wie möglich freigeschaltet
Url: Title: